sensor_id;sensor_type;location;lat;lon;timestamp;P1;durP1;ratioP1;P2;durP2;ratioP2
85544;SDS011;75982;52.834;13.846;2024-02-26T00:00:36;4.18;;;3.10;;
85544;SDS011;75982;52.834;13.846;2024-02-26T00:03:03;4.05;;;2.92;;
85544;SDS011;75982;52.834;13.846;2024-02-26T00:05:30;5.22;;;2.90;;
85544;SDS011;75982;52.834;13.846;2024-02-26T00:07:57;3.20;;;2.70;;
85544;SDS011;75982;52.834;13.846;2024-02-26T00:12:52;5.22;;;2.80;;
85544;SDS011;75982;52.834;13.846;2024-02-26T00:15:19;3.88;;;2.95;;
85544;SDS011;75982;52.834;13.846;2024-02-26T00:17:47;4.32;;;2.80;;
85544;SDS011;75982;52.834;13.846;2024-02-26T00:20:14;7.53;;;2.47;;
85544;SDS011;75982;52.834;13.846;2024-02-26T00:22:41;4.22;;;2.88;;
85544;SDS011;75982;52.834;13.846;2024-02-26T00:25:08;4.25;;;2.97;;
85544;SDS011;75982;52.834;13.846;2024-02-26T00:27:34;4.55;;;3.05;;
85544;SDS011;75982;52.834;13.846;2024-02-26T00:30:01;3.58;;;2.70;;
85544;SDS011;75982;52.834;13.846;2024-02-26T00:32:28;4.20;;;2.88;;
85544;SDS011;75982;52.834;13.846;2024-02-26T00:34:56;4.78;;;3.17;;
85544;SDS011;75982;52.834;13.846;2024-02-26T00:37:22;5.10;;;3.35;;
85544;SDS011;75982;52.834;13.846;2024-02-26T00:39:49;5.90;;;2.83;;
85544;SDS011;75982;52.834;13.846;2024-02-26T00:42:16;4.10;;;2.80;;
85544;SDS011;75982;52.834;13.846;2024-02-26T00:44:43;5.95;;;3.13;;
85544;SDS011;75982;52.834;13.846;2024-02-26T00:47:09;5.05;;;3.40;;
85544;SDS011;75982;52.834;13.846;2024-02-26T00:49:36;4.88;;;3.20;;
85544;SDS011;75982;52.834;13.846;2024-02-26T00:52:05;6.18;;;3.92;;
85544;SDS011;75982;52.834;13.846;2024-02-26T00:54:32;4.70;;;3.13;;
85544;SDS011;75982;52.834;13.846;2024-02-26T00:56:58;6.53;;;3.78;;
85544;SDS011;75982;52.834;13.846;2024-02-26T00:59:25;7.53;;;4.15;;
85544;SDS011;75982;52.834;13.846;2024-02-26T01:01:52;6.22;;;4.10;;
85544;SDS011;75982;52.834;13.846;2024-02-26T01:04:18;6.75;;;4.10;;
85544;SDS011;75982;52.834;13.846;2024-02-26T01:06:45;8.10;;;4.40;;
85544;SDS011;75982;52.834;13.846;2024-02-26T01:09:13;6.07;;;4.43;;
85544;SDS011;75982;52.834;13.846;2024-02-26T01:11:40;7.70;;;4.97;;
85544;SDS011;75982;52.834;13.846;2024-02-26T01:14:07;5.90;;;4.53;;
85544;SDS011;75982;52.834;13.846;2024-02-26T01:16:34;6.35;;;4.88;;
85544;SDS011;75982;52.834;13.846;2024-02-26T01:19:00;8.25;;;5.43;;
85544;SDS011;75982;52.834;13.846;2024-02-26T01:21:27;8.02;;;5.38;;
85544;SDS011;75982;52.834;13.846;2024-02-26T01:23:54;7.97;;;5.22;;
85544;SDS011;75982;52.834;13.846;2024-02-26T01:26:22;7.00;;;5.10;;
85544;SDS011;75982;52.834;13.846;2024-02-26T01:28:48;6.28;;;5.10;;
85544;SDS011;75982;52.834;13.846;2024-02-26T01:31:15;6.50;;;4.70;;
85544;SDS011;75982;52.834;13.846;2024-02-26T01:33:42;8.90;;;5.20;;
85544;SDS011;75982;52.834;13.846;2024-02-26T01:36:09;6.50;;;4.68;;
85544;SDS011;75982;52.834;13.846;2024-02-26T01:38:36;5.97;;;4.47;;
85544;SDS011;75982;52.834;13.846;2024-02-26T01:41:02;9.07;;;5.90;;
85544;SDS011;75982;52.834;13.846;2024-02-26T01:43:31;7.38;;;5.43;;
85544;SDS011;75982;52.834;13.846;2024-02-26T01:45:57;8.20;;;5.57;;
85544;SDS011;75982;52.834;13.846;2024-02-26T01:48:24;7.70;;;5.32;;
85544;SDS011;75982;52.834;13.846;2024-02-26T01:50:51;7.50;;;5.40;;
85544;SDS011;75982;52.834;13.846;2024-02-26T01:53:18;9.57;;;5.65;;
85544;SDS011;75982;52.834;13.846;2024-02-26T01:55:46;9.13;;;5.90;;
85544;SDS011;75982;52.834;13.846;2024-02-26T01:58:13;8.65;;;5.88;;
85544;SDS011;75982;52.834;13.846;2024-02-26T02:00:41;9.30;;;6.25;;
85544;SDS011;75982;52.834;13.846;2024-02-26T02:03:08;10.02;;;5.93;;
85544;SDS011;75982;52.834;13.846;2024-02-26T02:05:35;10.20;;;6.15;;
85544;SDS011;75982;52.834;13.846;2024-02-26T02:08:03;21.77;;;7.45;;
85544;SDS011;75982;52.834;13.846;2024-02-26T02:10:30;28.33;;;8.43;;
85544;SDS011;75982;52.834;13.846;2024-02-26T02:12:56;45.95;;;10.02;;
85544;SDS011;75982;52.834;13.846;2024-02-26T02:15:23;20.55;;;6.50;;
85544;SDS011;75982;52.834;13.846;2024-02-26T02:17:51;31.23;;;7.63;;
85544;SDS011;75982;52.834;13.846;2024-02-26T02:20:18;24.52;;;7.55;;
85544;SDS011;75982;52.834;13.846;2024-02-26T02:22:47;21.42;;;7.22;;
85544;SDS011;75982;52.834;13.846;2024-02-26T02:25:14;28.92;;;6.93;;
85544;SDS011;75982;52.834;13.846;2024-02-26T02:27:40;51.80;;;10.55;;
85544;SDS011;75982;52.834;13.846;2024-02-26T02:30:08;49.25;;;8.98;;
85544;SDS011;75982;52.834;13.846;2024-02-26T02:32:37;61.13;;;11.65;;
85544;SDS011;75982;52.834;13.846;2024-02-26T02:35:06;50.30;;;10.82;;
85544;SDS011;75982;52.834;13.846;2024-02-26T02:37:33;64.70;;;11.50;;
85544;SDS011;75982;52.834;13.846;2024-02-26T02:40:02;44.30;;;8.95;;
85544;SDS011;75982;52.834;13.846;2024-02-26T02:42:29;23.42;;;7.68;;
85544;SDS011;75982;52.834;13.846;2024-02-26T02:44:56;46.28;;;11.35;;
85544;SDS011;75982;52.834;13.846;2024-02-26T02:47:23;31.63;;;9.63;;
85544;SDS011;75982;52.834;13.846;2024-02-26T02:49:50;19.55;;;8.52;;
85544;SDS011;75982;52.834;13.846;2024-02-26T02:52:16;81.20;;;13.30;;
85544;SDS011;75982;52.834;13.846;2024-02-26T02:54:43;40.38;;;8.57;;
85544;SDS011;75982;52.834;13.846;2024-02-26T02:57:11;55.33;;;10.30;;
85544;SDS011;75982;52.834;13.846;2024-02-26T02:59:38;65.00;;;10.55;;
85544;SDS011;75982;52.834;13.846;2024-02-26T03:02:06;51.35;;;9.20;;
85544;SDS011;75982;52.834;13.846;2024-02-26T03:04:32;47.08;;;11.70;;
85544;SDS011;75982;52.834;13.846;2024-02-26T03:06:59;63.40;;;10.18;;
85544;SDS011;75982;52.834;13.846;2024-02-26T03:09:27;45.72;;;8.98;;
85544;SDS011;75982;52.834;13.846;2024-02-26T03:11:53;29.13;;;7.88;;
85544;SDS011;75982;52.834;13.846;2024-02-26T03:14:22;55.38;;;9.43;;
85544;SDS011;75982;52.834;13.846;2024-02-26T03:16:48;39.10;;;7.18;;
85544;SDS011;75982;52.834;13.846;2024-02-26T03:19:15;34.15;;;6.72;;
85544;SDS011;75982;52.834;13.846;2024-02-26T03:21:42;54.10;;;8.70;;
85544;SDS011;75982;52.834;13.846;2024-02-26T03:24:09;53.53;;;9.40;;
85544;SDS011;75982;52.834;13.846;2024-02-26T03:26:36;51.47;;;9.95;;
85544;SDS011;75982;52.834;13.846;2024-02-26T03:29:03;99.25;;;11.82;;
85544;SDS011;75982;52.834;13.846;2024-02-26T03:31:31;77.10;;;10.80;;
85544;SDS011;75982;52.834;13.846;2024-02-26T03:33:58;32.63;;;7.70;;
85544;SDS011;75982;52.834;13.846;2024-02-26T03:36:25;83.03;;;11.77;;
85544;SDS011;75982;52.834;13.846;2024-02-26T03:38:52;31.50;;;8.27;;
85544;SDS011;75982;52.834;13.846;2024-02-26T03:41:18;58.58;;;10.07;;
85544;SDS011;75982;52.834;13.846;2024-02-26T03:43:45;56.45;;;9.43;;
85544;SDS011;75982;52.834;13.846;2024-02-26T03:46:12;66.22;;;9.52;;
85544;SDS011;75982;52.834;13.846;2024-02-26T03:48:41;40.13;;;9.15;;
85544;SDS011;75982;52.834;13.846;2024-02-26T03:51:08;44.50;;;9.82;;
85544;SDS011;75982;52.834;13.846;2024-02-26T03:53:35;32.03;;;9.10;;
85544;SDS011;75982;52.834;13.846;2024-02-26T03:56:03;40.90;;;9.45;;
85544;SDS011;75982;52.834;13.846;2024-02-26T03:58:30;25.25;;;9.35;;
85544;SDS011;75982;52.834;13.846;2024-02-26T04:00:57;31.75;;;9.68;;
85544;SDS011;75982;52.834;13.846;2024-02-26T04:03:24;24.23;;;9.05;;
85544;SDS011;75982;52.834;13.846;2024-02-26T04:05:52;45.20;;;11.15;;
85544;SDS011;75982;52.834;13.846;2024-02-26T04:08:19;34.72;;;10.38;;
85544;SDS011;75982;52.834;13.846;2024-02-26T04:10:46;22.92;;;8.25;;
85544;SDS011;75982;52.834;13.846;2024-02-26T04:13:12;53.10;;;11.65;;
85544;SDS011;75982;52.834;13.846;2024-02-26T04:15:39;41.97;;;9.75;;
85544;SDS011;75982;52.834;13.846;2024-02-26T04:18:06;40.97;;;10.63;;
85544;SDS011;75982;52.834;13.846;2024-02-26T04:20:33;54.20;;;10.50;;
85544;SDS011;75982;52.834;13.846;2024-02-26T04:23:02;51.30;;;12.85;;
85544;SDS011;75982;52.834;13.846;2024-02-26T04:25:29;48.85;;;10.80;;
85544;SDS011;75982;52.834;13.846;2024-02-26T04:27:55;76.30;;;12.52;;
85544;SDS011;75982;52.834;13.846;2024-02-26T04:30:22;52.35;;;11.68;;
85544;SDS011;75982;52.834;13.846;2024-02-26T04:32:49;38.35;;;10.48;;
85544;SDS011;75982;52.834;13.846;2024-02-26T04:35:16;23.40;;;9.68;;
85544;SDS011;75982;52.834;13.846;2024-02-26T04:37:43;48.83;;;9.88;;
85544;SDS011;75982;52.834;13.846;2024-02-26T04:40:12;55.83;;;11.80;;
85544;SDS011;75982;52.834;13.846;2024-02-26T04:42:38;63.25;;;15.15;;
85544;SDS011;75982;52.834;13.846;2024-02-26T04:45:06;35.97;;;10.98;;
85544;SDS011;75982;52.834;13.846;2024-02-26T04:47:33;43.85;;;10.98;;
85544;SDS011;75982;52.834;13.846;2024-02-26T04:50:00;28.70;;;9.43;;
85544;SDS011;75982;52.834;13.846;2024-02-26T04:52:27;29.00;;;9.13;;
85544;SDS011;75982;52.834;13.846;2024-02-26T04:54:53;26.63;;;9.20;;
85544;SDS011;75982;52.834;13.846;2024-02-26T04:57:22;22.15;;;9.13;;
85544;SDS011;75982;52.834;13.846;2024-02-26T04:59:49;23.90;;;8.80;;
85544;SDS011;75982;52.834;13.846;2024-02-26T05:02:15;24.30;;;8.52;;
85544;SDS011;75982;52.834;13.846;2024-02-26T05:04:42;16.88;;;8.38;;
85544;SDS011;75982;52.834;13.846;2024-02-26T05:07:09;22.60;;;7.75;;
85544;SDS011;75982;52.834;13.846;2024-02-26T05:09:36;16.52;;;7.55;;
85544;SDS011;75982;52.834;13.846;2024-02-26T05:12:03;15.45;;;7.95;;
85544;SDS011;75982;52.834;13.846;2024-02-26T05:14:32;22.17;;;8.75;;
85544;SDS011;75982;52.834;13.846;2024-02-26T05:16:58;23.30;;;7.72;;
85544;SDS011;75982;52.834;13.846;2024-02-26T05:19:25;17.55;;;7.93;;
85544;SDS011;75982;52.834;13.846;2024-02-26T05:21:52;16.88;;;8.40;;
85544;SDS011;75982;52.834;13.846;2024-02-26T05:24:19;14.75;;;8.13;;
85544;SDS011;75982;52.834;13.846;2024-02-26T05:26:46;16.30;;;8.50;;
85544;SDS011;75982;52.834;13.846;2024-02-26T05:29:13;15.20;;;7.82;;
85544;SDS011;75982;52.834;13.846;2024-02-26T05:31:43;14.00;;;7.63;;
85544;SDS011;75982;52.834;13.846;2024-02-26T05:34:10;17.60;;;9.18;;
85544;SDS011;75982;52.834;13.846;2024-02-26T05:36:37;21.00;;;8.63;;
85544;SDS011;75982;52.834;13.846;2024-02-26T05:39:03;14.88;;;7.72;;
85544;SDS011;75982;52.834;13.846;2024-02-26T05:41:30;15.52;;;7.72;;
85544;SDS011;75982;52.834;13.846;2024-02-26T05:43:57;17.10;;;8.05;;
85544;SDS011;75982;52.834;13.846;2024-02-26T05:46:24;17.42;;;8.05;;
85544;SDS011;75982;52.834;13.846;2024-02-26T05:48:53;17.08;;;8.70;;
85544;SDS011;75982;52.834;13.846;2024-02-26T05:51:20;16.52;;;9.02;;
85544;SDS011;75982;52.834;13.846;2024-02-26T05:53:47;18.55;;;8.45;;
85544;SDS011;75982;52.834;13.846;2024-02-26T05:56:14;20.80;;;8.85;;
85544;SDS011;75982;52.834;13.846;2024-02-26T05:58:41;17.42;;;7.90;;
85544;SDS011;75982;52.834;13.846;2024-02-26T06:01:07;21.05;;;8.98;;
85544;SDS011;75982;52.834;13.846;2024-02-26T06:03:34;18.40;;;8.40;;
85544;SDS011;75982;52.834;13.846;2024-02-26T06:06:03;16.95;;;7.97;;
85544;SDS011;75982;52.834;13.846;2024-02-26T06:08:30;14.50;;;7.68;;
85544;SDS011;75982;52.834;13.846;2024-02-26T06:10:56;16.98;;;7.75;;
85544;SDS011;75982;52.834;13.846;2024-02-26T06:13:24;16.15;;;7.78;;
85544;SDS011;75982;52.834;13.846;2024-02-26T06:15:51;12.05;;;5.95;;
85544;SDS011;75982;52.834;13.846;2024-02-26T06:18:17;13.02;;;6.57;;
85544;SDS011;75982;52.834;13.846;2024-02-26T06:20:44;10.13;;;6.55;;
85544;SDS011;75982;52.834;13.846;2024-02-26T06:23:12;10.13;;;5.95;;
85544;SDS011;75982;52.834;13.846;2024-02-26T06:25:39;8.43;;;5.43;;
85544;SDS011;75982;52.834;13.846;2024-02-26T06:28:06;10.25;;;5.80;;
85544;SDS011;75982;52.834;13.846;2024-02-26T06:30:32;9.43;;;5.65;;
85544;SDS011;75982;52.834;13.846;2024-02-26T06:32:59;10.05;;;5.40;;
85544;SDS011;75982;52.834;13.846;2024-02-26T06:35:27;12.10;;;5.65;;
85544;SDS011;75982;52.834;13.846;2024-02-26T06:37:54;11.95;;;6.75;;
85544;SDS011;75982;52.834;13.846;2024-02-26T06:40:22;10.52;;;6.07;;
85544;SDS011;75982;52.834;13.846;2024-02-26T06:42:49;12.07;;;6.97;;
85544;SDS011;75982;52.834;13.846;2024-02-26T06:45:16;11.63;;;6.60;;
85544;SDS011;75982;52.834;13.846;2024-02-26T06:47:43;13.52;;;6.82;;
85544;SDS011;75982;52.834;13.846;2024-02-26T06:50:11;12.05;;;6.90;;
85544;SDS011;75982;52.834;13.846;2024-02-26T06:52:38;9.48;;;6.75;;
85544;SDS011;75982;52.834;13.846;2024-02-26T06:55:05;11.65;;;6.75;;
85544;SDS011;75982;52.834;13.846;2024-02-26T06:57:35;10.20;;;6.75;;
85544;SDS011;75982;52.834;13.846;2024-02-26T07:00:02;11.88;;;7.72;;
85544;SDS011;75982;52.834;13.846;2024-02-26T07:02:29;13.00;;;8.70;;
85544;SDS011;75982;52.834;13.846;2024-02-26T07:04:56;12.80;;;8.35;;
85544;SDS011;75982;52.834;13.846;2024-02-26T07:07:22;14.80;;;7.68;;
85544;SDS011;75982;52.834;13.846;2024-02-26T07:09:49;24.23;;;8.77;;
85544;SDS011;75982;52.834;13.846;2024-02-26T07:12:16;18.73;;;8.43;;
85544;SDS011;75982;52.834;13.846;2024-02-26T07:14:44;20.73;;;8.20;;
85544;SDS011;75982;52.834;13.846;2024-02-26T07:17:11;23.58;;;10.23;;
85544;SDS011;75982;52.834;13.846;2024-02-26T07:19:38;16.80;;;8.90;;
85544;SDS011;75982;52.834;13.846;2024-02-26T07:22:05;15.57;;;8.63;;
85544;SDS011;75982;52.834;13.846;2024-02-26T07:24:31;12.90;;;7.57;;
85544;SDS011;75982;52.834;13.846;2024-02-26T07:26:58;18.20;;;8.52;;
85544;SDS011;75982;52.834;13.846;2024-02-26T07:29:25;16.25;;;9.00;;
85544;SDS011;75982;52.834;13.846;2024-02-26T07:31:54;15.07;;;8.43;;
85544;SDS011;75982;52.834;13.846;2024-02-26T07:34:21;14.77;;;8.10;;
85544;SDS011;75982;52.834;13.846;2024-02-26T07:36:49;15.63;;;9.10;;
85544;SDS011;75982;52.834;13.846;2024-02-26T07:39:15;20.95;;;10.88;;
85544;SDS011;75982;52.834;13.846;2024-02-26T07:41:42;22.42;;;11.93;;
85544;SDS011;75982;52.834;13.846;2024-02-26T07:44:09;19.05;;;10.25;;
85544;SDS011;75982;52.834;13.846;2024-02-26T07:46:36;21.15;;;11.40;;
85544;SDS011;75982;52.834;13.846;2024-02-26T07:49:04;21.33;;;11.82;;
85544;SDS011;75982;52.834;13.846;2024-02-26T07:51:31;21.75;;;12.98;;
85544;SDS011;75982;52.834;13.846;2024-02-26T07:53:58;27.50;;;12.27;;
85544;SDS011;75982;52.834;13.846;2024-02-26T07:56:25;22.90;;;12.60;;
85544;SDS011;75982;52.834;13.846;2024-02-26T07:58:52;25.65;;;13.63;;
85544;SDS011;75982;52.834;13.846;2024-02-26T08:01:18;25.33;;;13.85;;
85544;SDS011;75982;52.834;13.846;2024-02-26T08:03:45;20.90;;;11.60;;
85544;SDS011;75982;52.834;13.846;2024-02-26T08:06:14;22.33;;;12.60;;
85544;SDS011;75982;52.834;13.846;2024-02-26T08:08:41;26.20;;;14.05;;
85544;SDS011;75982;52.834;13.846;2024-02-26T08:11:08;22.80;;;12.38;;
85544;SDS011;75982;52.834;13.846;2024-02-26T08:13:34;25.05;;;14.32;;
85544;SDS011;75982;52.834;13.846;2024-02-26T08:16:01;26.88;;;13.13;;
85544;SDS011;75982;52.834;13.846;2024-02-26T08:18:28;22.42;;;13.77;;
85544;SDS011;75982;52.834;13.846;2024-02-26T08:20:55;25.35;;;15.07;;
85544;SDS011;75982;52.834;13.846;2024-02-26T08:23:24;25.48;;;14.27;;
85544;SDS011;75982;52.834;13.846;2024-02-26T08:25:50;23.92;;;14.45;;
85544;SDS011;75982;52.834;13.846;2024-02-26T08:28:17;23.35;;;13.77;;
85544;SDS011;75982;52.834;13.846;2024-02-26T08:30:44;23.23;;;14.00;;
85544;SDS011;75982;52.834;13.846;2024-02-26T08:33:11;27.05;;;14.23;;
85544;SDS011;75982;52.834;13.846;2024-02-26T08:35:38;24.08;;;13.35;;
85544;SDS011;75982;52.834;13.846;2024-02-26T08:38:05;24.25;;;13.52;;
85544;SDS011;75982;52.834;13.846;2024-02-26T08:40:33;27.02;;;15.13;;
85544;SDS011;75982;52.834;13.846;2024-02-26T08:42:59;28.02;;;15.75;;
85544;SDS011;75982;52.834;13.846;2024-02-26T08:45:26;22.55;;;14.38;;
85544;SDS011;75982;52.834;13.846;2024-02-26T08:47:55;27.80;;;14.88;;
85544;SDS011;75982;52.834;13.846;2024-02-26T08:50:22;26.10;;;14.50;;
85544;SDS011;75982;52.834;13.846;2024-02-26T08:52:49;26.10;;;14.65;;
85544;SDS011;75982;52.834;13.846;2024-02-26T08:55:16;29.05;;;15.38;;
85544;SDS011;75982;52.834;13.846;2024-02-26T08:57:44;25.45;;;16.48;;
85544;SDS011;75982;52.834;13.846;2024-02-26T09:00:11;27.48;;;14.98;;
85544;SDS011;75982;52.834;13.846;2024-02-26T09:02:39;26.60;;;16.02;;
85544;SDS011;75982;52.834;13.846;2024-02-26T09:05:06;27.23;;;15.57;;
85544;SDS011;75982;52.834;13.846;2024-02-26T09:07:33;25.67;;;16.25;;
85544;SDS011;75982;52.834;13.846;2024-02-26T09:10:00;31.80;;;17.05;;
85544;SDS011;75982;52.834;13.846;2024-02-26T09:12:26;28.40;;;17.08;;
85544;SDS011;75982;52.834;13.846;2024-02-26T09:14:55;25.52;;;15.85;;
85544;SDS011;75982;52.834;13.846;2024-02-26T09:17:22;28.08;;;16.58;;
85544;SDS011;75982;52.834;13.846;2024-02-26T09:19:48;29.98;;;17.08;;
85544;SDS011;75982;52.834;13.846;2024-02-26T09:22:15;27.85;;;16.92;;
85544;SDS011;75982;52.834;13.846;2024-02-26T09:24:44;28.35;;;17.83;;
85544;SDS011;75982;52.834;13.846;2024-02-26T09:27:11;31.23;;;17.02;;
85544;SDS011;75982;52.834;13.846;2024-02-26T09:29:38;30.70;;;17.02;;
85544;SDS011;75982;52.834;13.846;2024-02-26T09:32:06;25.30;;;15.77;;
85544;SDS011;75982;52.834;13.846;2024-02-26T09:34:33;26.52;;;15.82;;
85544;SDS011;75982;52.834;13.846;2024-02-26T09:37:00;27.77;;;17.08;;
85544;SDS011;75982;52.834;13.846;2024-02-26T09:39:40;23.13;;;15.30;;
85544;SDS011;75982;52.834;13.846;2024-02-26T09:42:08;23.13;;;14.65;;
85544;SDS011;75982;52.834;13.846;2024-02-26T09:44:39;25.77;;;16.38;;
85544;SDS011;75982;52.834;13.846;2024-02-26T09:47:08;24.48;;;14.90;;
85544;SDS011;75982;52.834;13.846;2024-02-26T09:49:36;27.15;;;14.63;;
85544;SDS011;75982;52.834;13.846;2024-02-26T09:52:04;28.98;;;18.02;;
85544;SDS011;75982;52.834;13.846;2024-02-26T09:54:31;25.58;;;14.93;;
85544;SDS011;75982;52.834;13.846;2024-02-26T09:56:59;27.58;;;17.15;;
85544;SDS011;75982;52.834;13.846;2024-02-26T09:59:33;27.42;;;15.50;;
85544;SDS011;75982;52.834;13.846;2024-02-26T10:02:06;25.17;;;15.35;;
85544;SDS011;75982;52.834;13.846;2024-02-26T10:04:40;28.08;;;16.88;;
85544;SDS011;75982;52.834;13.846;2024-02-26T10:07:13;22.17;;;13.95;;
85544;SDS011;75982;52.834;13.846;2024-02-26T10:09:40;18.52;;;12.02;;
85544;SDS011;75982;52.834;13.846;2024-02-26T10:12:10;17.05;;;12.00;;
85544;SDS011;75982;52.834;13.846;2024-02-26T10:14:37;18.10;;;11.45;;
85544;SDS011;75982;52.834;13.846;2024-02-26T10:17:04;15.77;;;11.13;;
85544;SDS011;75982;52.834;13.846;2024-02-26T10:19:35;16.52;;;11.27;;
85544;SDS011;75982;52.834;13.846;2024-02-26T10:22:04;17.85;;;12.30;;
85544;SDS011;75982;52.834;13.846;2024-02-26T10:24:32;21.40;;;13.75;;
85544;SDS011;75982;52.834;13.846;2024-02-26T10:26:59;28.02;;;17.92;;
85544;SDS011;75982;52.834;13.846;2024-02-26T10:29:26;23.63;;;14.65;;
85544;SDS011;75982;52.834;13.846;2024-02-26T10:31:53;31.45;;;19.02;;
85544;SDS011;75982;52.834;13.846;2024-02-26T10:34:20;23.42;;;13.20;;
85544;SDS011;75982;52.834;13.846;2024-02-26T10:36:48;24.63;;;16.42;;
85544;SDS011;75982;52.834;13.846;2024-02-26T10:39:20;21.08;;;13.77;;
85544;SDS011;75982;52.834;13.846;2024-02-26T10:41:48;22.70;;;13.35;;
85544;SDS011;75982;52.834;13.846;2024-02-26T10:44:15;21.30;;;13.48;;
85544;SDS011;75982;52.834;13.846;2024-02-26T10:46:46;17.30;;;10.38;;
85544;SDS011;75982;52.834;13.846;2024-02-26T10:49:13;21.00;;;12.57;;
85544;SDS011;75982;52.834;13.846;2024-02-26T10:51:42;19.02;;;12.10;;
85544;SDS011;75982;52.834;13.846;2024-02-26T10:54:15;18.02;;;11.85;;
85544;SDS011;75982;52.834;13.846;2024-02-26T10:56:42;31.88;;;18.40;;
85544;SDS011;75982;52.834;13.846;2024-02-26T10:59:12;21.27;;;12.20;;
85544;SDS011;75982;52.834;13.846;2024-02-26T11:01:40;19.15;;;12.30;;
85544;SDS011;75982;52.834;13.846;2024-02-26T11:04:08;21.17;;;14.02;;
85544;SDS011;75982;52.834;13.846;2024-02-26T11:06:36;21.20;;;13.38;;
85544;SDS011;75982;52.834;13.846;2024-02-26T11:09:04;19.73;;;12.43;;
85544;SDS011;75982;52.834;13.846;2024-02-26T11:11:35;16.77;;;11.15;;
85544;SDS011;75982;52.834;13.846;2024-02-26T11:14:03;18.92;;;11.63;;
85544;SDS011;75982;52.834;13.846;2024-02-26T11:16:29;16.15;;;10.90;;
85544;SDS011;75982;52.834;13.846;2024-02-26T11:18:57;24.38;;;13.25;;
85544;SDS011;75982;52.834;13.846;2024-02-26T11:21:24;18.23;;;11.32;;
85544;SDS011;75982;52.834;13.846;2024-02-26T11:23:51;16.27;;;10.40;;
85544;SDS011;75982;52.834;13.846;2024-02-26T11:26:18;18.95;;;11.10;;
85544;SDS011;75982;52.834;13.846;2024-02-26T11:31:15;19.80;;;12.82;;
85544;SDS011;75982;52.834;13.846;2024-02-26T11:33:42;38.72;;;26.10;;
85544;SDS011;75982;52.834;13.846;2024-02-26T11:36:09;45.80;;;34.25;;
85544;SDS011;75982;52.834;13.846;2024-02-26T11:38:37;29.90;;;20.48;;
85544;SDS011;75982;52.834;13.846;2024-02-26T11:41:04;18.80;;;12.55;;
85544;SDS011;75982;52.834;13.846;2024-02-26T11:43:52;18.45;;;12.07;;
85544;SDS011;75982;52.834;13.846;2024-02-26T11:46:26;27.20;;;17.38;;
85544;SDS011;75982;52.834;13.846;2024-02-26T11:48:54;19.08;;;11.05;;
85544;SDS011;75982;52.834;13.846;2024-02-26T11:51:25;27.60;;;15.73;;
85544;SDS011;75982;52.834;13.846;2024-02-26T11:53:52;19.00;;;12.23;;
85544;SDS011;75982;52.834;13.846;2024-02-26T11:56:22;14.65;;;10.88;;
85544;SDS011;75982;52.834;13.846;2024-02-26T11:58:58;17.67;;;11.45;;
85544;SDS011;75982;52.834;13.846;2024-02-26T12:01:36;15.73;;;10.35;;
85544;SDS011;75982;52.834;13.846;2024-02-26T12:04:06;14.05;;;8.57;;
85544;SDS011;75982;52.834;13.846;2024-02-26T12:06:41;13.80;;;11.35;;
85544;SDS011;75982;52.834;13.846;2024-02-26T12:09:09;19.25;;;14.40;;
85544;SDS011;75982;52.834;13.846;2024-02-26T12:11:37;17.02;;;13.10;;
85544;SDS011;75982;52.834;13.846;2024-02-26T12:14:07;31.67;;;21.52;;
85544;SDS011;75982;52.834;13.846;2024-02-26T12:16:35;96.78;;;51.90;;
85544;SDS011;75982;52.834;13.846;2024-02-26T12:19:03;27.48;;;15.80;;
85544;SDS011;75982;52.834;13.846;2024-02-26T12:21:31;15.85;;;10.50;;
85544;SDS011;75982;52.834;13.846;2024-02-26T12:24:06;16.85;;;11.38;;
85544;SDS011;75982;52.834;13.846;2024-02-26T12:26:36;18.55;;;11.10;;
85544;SDS011;75982;52.834;13.846;2024-02-26T12:29:03;13.05;;;8.48;;
85544;SDS011;75982;52.834;13.846;2024-02-26T12:31:31;10.63;;;8.15;;
85544;SDS011;75982;52.834;13.846;2024-02-26T12:33:59;12.85;;;8.13;;
85544;SDS011;75982;52.834;13.846;2024-02-26T12:36:26;13.85;;;8.80;;
85544;SDS011;75982;52.834;13.846;2024-02-26T12:38:53;11.63;;;7.65;;
85544;SDS011;75982;52.834;13.846;2024-02-26T12:41:20;15.75;;;10.27;;
85544;SDS011;75982;52.834;13.846;2024-02-26T12:43:48;11.98;;;8.35;;
85544;SDS011;75982;52.834;13.846;2024-02-26T12:46:16;10.45;;;7.32;;
85544;SDS011;75982;52.834;13.846;2024-02-26T12:48:44;12.90;;;8.75;;
85544;SDS011;75982;52.834;13.846;2024-02-26T12:51:14;14.32;;;8.45;;
85544;SDS011;75982;52.834;13.846;2024-02-26T12:53:42;10.32;;;6.53;;
85544;SDS011;75982;52.834;13.846;2024-02-26T12:56:10;10.73;;;6.82;;
85544;SDS011;75982;52.834;13.846;2024-02-26T12:58:37;23.48;;;18.58;;
85544;SDS011;75982;52.834;13.846;2024-02-26T13:01:06;9.00;;;6.40;;
85544;SDS011;75982;52.834;13.846;2024-02-26T13:03:34;15.13;;;11.82;;
85544;SDS011;75982;52.834;13.846;2024-02-26T13:06:04;10.27;;;7.95;;
85544;SDS011;75982;52.834;13.846;2024-02-26T13:08:32;18.77;;;10.93;;
85544;SDS011;75982;52.834;13.846;2024-02-26T13:10:59;30.35;;;23.08;;
85544;SDS011;75982;52.834;13.846;2024-02-26T13:13:26;14.38;;;9.73;;
85544;SDS011;75982;52.834;13.846;2024-02-26T13:16:00;15.13;;;8.50;;
85544;SDS011;75982;52.834;13.846;2024-02-26T13:18:27;14.50;;;9.30;;
85544;SDS011;75982;52.834;13.846;2024-02-26T13:23:38;12.75;;;8.77;;
85544;SDS011;75982;52.834;13.846;2024-02-26T13:26:05;12.27;;;8.50;;
85544;SDS011;75982;52.834;13.846;2024-02-26T13:28:32;12.95;;;8.48;;
85544;SDS011;75982;52.834;13.846;2024-02-26T13:30:59;12.48;;;8.20;;
85544;SDS011;75982;52.834;13.846;2024-02-26T13:33:27;13.23;;;8.60;;
85544;SDS011;75982;52.834;13.846;2024-02-26T13:35:56;12.88;;;8.35;;
85544;SDS011;75982;52.834;13.846;2024-02-26T13:38:25;14.73;;;8.80;;
85544;SDS011;75982;52.834;13.846;2024-02-26T13:40:52;13.40;;;8.48;;
85544;SDS011;75982;52.834;13.846;2024-02-26T13:43:19;11.18;;;7.68;;
85544;SDS011;75982;52.834;13.846;2024-02-26T13:45:48;11.95;;;8.00;;
85544;SDS011;75982;52.834;13.846;2024-02-26T13:48:16;19.10;;;13.60;;
85544;SDS011;75982;52.834;13.846;2024-02-26T13:50:43;13.25;;;8.80;;
85544;SDS011;75982;52.834;13.846;2024-02-26T13:53:10;17.08;;;11.65;;
85544;SDS011;75982;52.834;13.846;2024-02-26T13:55:39;11.98;;;7.47;;
85544;SDS011;75982;52.834;13.846;2024-02-26T13:58:06;13.45;;;7.60;;
85544;SDS011;75982;52.834;13.846;2024-02-26T14:00:33;12.75;;;9.00;;
85544;SDS011;75982;52.834;13.846;2024-02-26T14:03:01;13.88;;;8.38;;
85544;SDS011;75982;52.834;13.846;2024-02-26T14:05:29;12.60;;;8.40;;
85544;SDS011;75982;52.834;13.846;2024-02-26T14:07:56;10.85;;;7.63;;
85544;SDS011;75982;52.834;13.846;2024-02-26T14:10:23;13.95;;;8.45;;
85544;SDS011;75982;52.834;13.846;2024-02-26T14:12:51;14.68;;;8.38;;
85544;SDS011;75982;52.834;13.846;2024-02-26T14:15:18;9.77;;;7.05;;
85544;SDS011;75982;52.834;13.846;2024-02-26T14:17:45;14.02;;;8.30;;
85544;SDS011;75982;52.834;13.846;2024-02-26T14:20:12;10.75;;;8.07;;
85544;SDS011;75982;52.834;13.846;2024-02-26T14:22:39;10.25;;;7.18;;
85544;SDS011;75982;52.834;13.846;2024-02-26T14:25:06;10.35;;;7.35;;
85544;SDS011;75982;52.834;13.846;2024-02-26T14:27:33;9.88;;;7.05;;